Lima, Ohio
Current Conditions -  °F | °C
As of 9:53 AM on Monday 24 Nov 2014 (Local Time) from KAOH Reporting Station
Overcast Overcast  
Wind Chill: 55°   Ceiling: 7000
Heat Index: 55°   Visibility: 10mi
Dew Point: 52°   Wind: 17mph
Humidity: 89%   Direction: 210°SSW
Pressure: 29.23"   Gusts: NA
Location:  40.74°N, 84.11°W
Report Text: KAOH 241453Z AUTO 21015KT 10SM SCT055 BKN070 OVC110 13/11 A2923 RMK AO2 PK WND 22033/1359 RAE39 TSE13 SLP896 P0012 60048 T01280111 50012 $
Loading
Personal Weather Stations






























Interactive Weather Map New forecast layout! Learn more

10-Day Weather Forecast

Advertisements
Track Severe Weather on mobile